createdAt,value
2019-05-25T00:04:25.528Z,73.41
2019-05-25T00:09:25.547Z,75.30
2019-05-25T00:14:24.659Z,76.02
2019-05-25T00:19:24.565Z,75.03
2019-05-25T00:24:24.582Z,75.99
2019-05-25T00:29:24.584Z,76.57
2019-05-25T00:34:24.505Z,76.09
2019-05-25T00:39:25.523Z,77.10
2019-05-25T00:44:25.534Z,77.17
2019-05-25T00:49:24.516Z,78.56
2019-05-25T00:54:27.997Z,77.78
2019-05-25T00:59:24.509Z,78.10
2019-05-25T01:04:24.530Z,78.82
2019-05-25T01:09:25.481Z,77.19
2019-05-25T01:14:25.536Z,78.96
2019-05-25T01:19:25.568Z,79.70
2019-05-25T01:24:24.563Z,80.22
2019-05-25T01:29:24.577Z,79.37
2019-05-25T01:34:24.538Z,80.61
2019-05-25T01:39:24.523Z,81.38
2019-05-25T01:44:24.532Z,80.46
2019-05-25T01:49:24.464Z,80.51
2019-05-25T01:54:23.706Z,82.35
2019-05-25T01:59:22.958Z,82.40
2019-05-25T02:04:22.513Z,82.35
2019-05-25T02:09:22.631Z,84.56
2019-05-25T02:14:23.500Z,85.21
2019-05-25T02:19:22.532Z,84.19
2019-05-25T02:24:22.555Z,85.79
2019-05-25T02:29:22.486Z,85.07
2019-05-25T02:34:23.555Z,83.72
2019-05-25T02:39:22.525Z,84.78
2019-05-25T02:44:23.638Z,85.54
2019-05-25T02:49:22.539Z,86.47
2019-05-25T02:54:22.638Z,84.37
2019-05-25T02:59:21.579Z,85.45
2019-05-25T03:04:20.545Z,85.03
2019-05-25T03:09:20.557Z,85.21
2019-05-25T03:14:20.542Z,85.67
2019-05-25T03:19:20.528Z,86.12
2019-05-25T03:24:20.533Z,87.02
2019-05-25T03:29:20.518Z,86.79
2019-05-25T03:34:20.540Z,86.17
2019-05-25T03:39:20.553Z,85.05
2019-05-25T03:44:21.560Z,85.23
2019-05-25T03:49:21.543Z,84.99
2019-05-25T03:54:20.519Z,85.91
2019-05-25T03:59:20.550Z,86.07
2019-05-25T04:04:20.545Z,87.02
2019-05-25T04:09:20.530Z,86.65
2019-05-25T04:14:21.666Z,87.75
2019-05-25T04:19:21.583Z,87.68
2019-05-25T04:24:20.827Z,86.18
2019-05-25T04:29:19.665Z,85.58
2019-05-25T04:34:19.584Z,84.31
2019-05-25T04:39:19.531Z,83.78
2019-05-25T04:44:19.488Z,83.36
2019-05-25T04:49:20.557Z,83.09
2019-05-25T04:54:20.553Z,83.10
2019-05-25T04:59:19.499Z,83.76
2019-05-25T05:04:20.536Z,82.43
2019-05-25T05:09:19.768Z,82.91
2019-05-25T05:14:20.530Z,81.43
2019-05-25T05:19:20.574Z,82.73
2019-05-25T05:29:21.551Z,81.93
2019-05-25T05:39:20.538Z,81.73
2019-05-25T05:44:20.555Z,81.17
2019-05-25T05:49:19.954Z,81.70
2019-05-25T05:54:20.556Z,81.79
2019-05-25T05:59:20.518Z,81.24
2019-05-25T06:04:19.512Z,81.57
2019-05-25T06:09:19.503Z,80.15
2019-05-25T06:14:19.519Z,80.15
2019-05-25T06:19:19.519Z,79.20
2019-05-25T06:24:19.595Z,78.83
2019-05-25T06:29:18.942Z,77.81
2019-05-25T06:34:18.552Z,78.26
2019-05-25T06:44:19.598Z,77.31
2019-05-25T06:49:19.537Z,77.00
2019-05-25T06:54:19.520Z,78.64
2019-05-25T06:59:18.970Z,78.32
2019-05-25T07:04:18.541Z,77.55
2019-05-25T07:09:19.525Z,77.56
2019-05-25T07:14:19.519Z,75.81
2019-05-25T07:19:20.549Z,77.55
2019-05-25T07:24:17.823Z,74.24
2019-05-25T07:29:18.590Z,74.65
2019-05-25T07:34:18.556Z,76.39
2019-05-25T07:39:18.529Z,74.41
2019-05-25T07:44:17.539Z,72.85
2019-05-25T07:49:17.534Z,73.73
2019-05-25T07:54:18.639Z,71.09
2019-05-25T07:59:17.548Z,70.72
2019-05-25T08:04:17.537Z,66.89
2019-05-25T08:09:17.768Z,67.53
2019-05-25T08:14:17.773Z,67.35
2019-05-25T08:19:17.773Z,68.66
2019-05-25T08:24:17.716Z,68.03
2019-05-25T08:29:18.710Z,68.58
2019-05-25T08:34:18.809Z,67.79
2019-05-25T08:39:18.817Z,65.00
2019-05-25T08:44:18.974Z,65.18
2019-05-25T08:49:18.750Z,65.96
2019-05-25T08:54:17.830Z,64.20
2019-05-25T08:59:17.741Z,65.44
2019-05-25T09:04:18.809Z,66.57
2019-05-25T09:09:18.765Z,60.97
2019-05-25T09:19:18.758Z,63.93
2019-05-25T09:24:17.728Z,60.88
2019-05-25T09:29:16.947Z,65.22
2019-05-25T09:34:16.729Z,60.97
2019-05-25T09:39:15.746Z,61.60
2019-05-25T09:44:15.746Z,60.82
2019-05-25T09:49:15.762Z,61.43
2019-05-25T09:54:14.728Z,60.29
2019-05-25T09:59:20.131Z,58.44
2019-05-25T10:04:13.722Z,57.46
2019-05-25T10:09:13.736Z,60.44
2019-05-25T10:14:14.769Z,58.64
2019-05-25T10:19:15.784Z,58.62
2019-05-25T10:24:15.765Z,59.35
2019-05-25T10:29:15.746Z,60.05
2019-05-25T10:34:15.735Z,57.80
2019-05-25T10:39:15.142Z,57.77
2019-05-25T10:44:14.728Z,56.33
2019-05-25T10:49:14.740Z,55.38
2019-05-25T10:54:13.800Z,55.31
2019-05-25T11:04:13.774Z,54.91
2019-05-25T11:09:12.812Z,50.52
2019-05-25T11:14:12.048Z,53.09
2019-05-25T11:19:11.720Z,53.97
2019-05-25T11:24:12.733Z,54.84
2019-05-25T11:29:12.736Z,55.72
2019-05-25T11:34:12.812Z,54.04
2019-05-25T11:39:12.695Z,53.19
2019-05-25T11:44:12.724Z,54.41
2019-05-25T11:49:22.067Z,52.16
2019-05-25T11:54:12.664Z,53.55
2019-05-25T11:59:12.686Z,52.59
2019-05-25T12:04:12.769Z,52.34
2019-05-25T12:09:12.676Z,53.82
2019-05-25T12:14:12.700Z,52.89
2019-05-25T12:19:14.865Z,51.93
2019-05-25T12:24:12.718Z,53.29
2019-05-25T12:29:12.676Z,52.07
2019-05-25T12:34:11.738Z,51.86
2019-05-25T12:39:11.676Z,53.19
2019-05-25T12:44:10.734Z,53.78
2019-05-25T12:49:09.843Z,52.18
2019-05-25T12:54:08.802Z,49.28
2019-05-25T12:59:08.706Z,50.41
2019-05-25T13:04:08.749Z,53.37
2019-05-25T13:09:08.663Z,54.51
2019-05-25T13:14:14.623Z,53.66
2019-05-25T13:19:07.652Z,51.84
2019-05-25T13:24:07.724Z,51.38
2019-05-25T13:29:08.773Z,47.89
2019-05-25T13:34:08.710Z,50.73
2019-05-25T13:39:08.681Z,49.73
2019-05-25T13:44:07.806Z,49.38
2019-05-25T13:49:08.687Z,47.81
2019-05-25T13:54:08.673Z,48.08
2019-05-25T13:59:09.706Z,48.95
2019-05-25T14:04:09.734Z,47.01
2019-05-25T14:09:09.692Z,46.68
2019-05-25T14:14:09.680Z,46.96
2019-05-25T14:19:09.722Z,50.18
2019-05-25T14:24:08.680Z,50.31
2019-05-25T14:29:09.650Z,46.25
2019-05-25T14:34:09.673Z,49.61
2019-05-25T14:39:09.703Z,45.32
2019-05-25T14:44:09.658Z,49.95
2019-05-25T14:49:09.693Z,47.29
2019-05-25T14:54:09.135Z,46.50
2019-05-25T14:59:08.671Z,44.84
2019-05-25T15:04:08.612Z,46.88
2019-05-25T15:09:08.633Z,46.23
2019-05-25T15:14:08.635Z,45.74
2019-05-25T15:19:07.658Z,45.22
2019-05-25T15:24:06.901Z,43.91
2019-05-25T15:29:06.665Z,46.42
2019-05-25T15:34:05.684Z,46.99
2019-05-25T15:39:05.633Z,45.44
2019-05-25T15:49:04.594Z,45.24
2019-05-25T15:54:03.609Z,45.15
2019-05-25T15:59:02.903Z,46.07
2019-05-25T16:04:01.981Z,48.11
2019-05-25T16:09:01.735Z,48.54
2019-05-25T16:14:00.608Z,44.00
2019-05-25T16:19:01.628Z,47.17
2019-05-25T16:24:02.649Z,46.99
2019-05-25T16:29:01.682Z,47.19
2019-05-25T16:34:00.983Z,46.82
2019-05-25T16:39:00.651Z,40.82
2019-05-25T16:44:00.632Z,40.20
2019-05-25T16:49:00.637Z,39.04
2019-05-25T16:54:00.584Z,44.05
2019-05-25T16:59:00.630Z,43.10
2019-05-25T17:04:00.687Z,47.86
2019-05-25T17:08:59.602Z,47.92
2019-05-25T17:13:59.582Z,44.95
2019-05-25T17:18:58.663Z,47.79
2019-05-25T17:23:57.684Z,49.79
2019-05-25T17:28:57.595Z,50.54
2019-05-25T17:33:57.010Z,50.86
2019-05-25T17:38:57.643Z,49.85
2019-05-25T17:43:58.605Z,49.43
2019-05-25T17:48:58.614Z,51.38
2019-05-25T17:53:58.015Z,48.90
2019-05-25T17:58:57.006Z,49.16
2019-05-25T18:04:06.607Z,52.02
2019-05-25T18:08:57.618Z,53.37
2019-05-25T18:13:57.605Z,53.71
2019-05-25T18:18:56.566Z,53.42
2019-05-25T18:23:55.631Z,53.69
2019-05-25T18:28:54.575Z,52.16
2019-05-25T18:33:53.817Z,54.93
2019-05-25T18:38:54.622Z,56.13
2019-05-25T18:43:53.612Z,56.71
2019-05-25T18:48:54.688Z,54.96
2019-05-25T18:53:54.573Z,56.35
2019-05-25T18:58:54.579Z,56.41
2019-05-25T19:03:54.600Z,54.95
2019-05-25T19:08:54.588Z,56.60
2019-05-25T19:13:54.596Z,56.44
2019-05-25T19:18:53.910Z,57.64
2019-05-25T19:23:52.881Z,59.16
2019-05-25T19:28:51.917Z,58.40
2019-05-25T19:33:52.540Z,58.01
2019-05-25T19:38:51.910Z,58.85
2019-05-25T19:43:52.602Z,59.35
2019-05-25T19:48:53.557Z,60.05
2019-05-25T19:53:53.544Z,61.77
2019-05-25T19:58:54.573Z,62.92
2019-05-25T20:03:57.299Z,63.86
2019-05-25T20:08:54.653Z,65.29
2019-05-25T20:13:54.560Z,66.10
2019-05-25T20:18:54.620Z,66.59
2019-05-25T20:23:53.575Z,67.53
2019-05-25T20:28:53.550Z,69.26
2019-05-25T20:33:53.532Z,69.36
2019-05-25T20:38:52.805Z,69.80
2019-05-25T20:43:51.625Z,69.69
2019-05-25T20:48:50.884Z,70.57
2019-05-25T20:53:50.649Z,70.36
2019-05-25T20:58:49.590Z,71.31
2019-05-25T21:03:50.543Z,70.87
2019-05-25T21:08:50.561Z,71.75
2019-05-25T21:13:49.624Z,73.25
2019-05-25T21:18:50.574Z,73.02
2019-05-25T21:23:50.602Z,72.97
2019-05-25T21:28:50.574Z,73.36
2019-05-25T21:33:49.615Z,73.28
2019-05-25T21:38:49.604Z,73.19
2019-05-25T21:43:49.511Z,72.89
2019-05-25T21:48:49.578Z,74.09
2019-05-25T21:53:49.538Z,73.32
2019-05-25T21:58:49.519Z,77.04
2019-05-25T22:03:48.505Z,74.95
2019-05-25T22:08:47.570Z,77.12
2019-05-25T22:13:48.569Z,77.96
2019-05-25T22:18:47.713Z,77.30
2019-05-25T22:23:48.586Z,77.97
2019-05-25T22:28:47.962Z,78.28
2019-05-25T22:33:48.576Z,77.90
2019-05-25T22:38:47.508Z,79.03
2019-05-25T22:43:48.532Z,80.54
2019-05-25T22:48:47.723Z,79.99
2019-05-25T22:53:46.528Z,78.28
2019-05-25T22:58:46.575Z,81.10
2019-05-25T23:03:46.565Z,80.33
2019-05-25T23:08:47.601Z,82.25
2019-05-25T23:13:46.808Z,82.15
2019-05-25T23:18:45.970Z,80.33
2019-05-25T23:23:45.557Z,81.62
2019-05-25T23:28:45.545Z,81.61
2019-05-25T23:33:46.586Z,82.41
2019-05-25T23:38:45.559Z,82.04
2019-05-25T23:43:45.594Z,82.23
2019-05-25T23:48:44.543Z,80.21
2019-05-25T23:53:44.683Z,81.93
2019-05-25T23:58:43.648Z,83.91
